Time,TemperatureF,DewpointF,PressureIn,WindDirection,WindDirectionDegrees,WindSpeedMPH,WindSpeedGustMPH,Humidity,HourlyPrecipIn,Conditions,Clouds,dailyrainin,SoftwareType,DateUTC
2013-08-09 00:01:00,72.0,70.0,29.96,SW,214,0.0,0.0,93,0.00,,,0.15,,2013-08-09 04:01:00,
2013-08-09 00:12:00,71.0,69.0,29.96,SW,214,0.0,2.0,93,0.00,,,0.15,,2013-08-09 04:12:00,
2013-08-09 00:33:00,71.0,69.0,29.96,SW,214,0.0,1.0,92,0.00,,,0.15,,2013-08-09 04:33:00,
2013-08-09 00:43:00,71.0,68.0,29.95,SW,214,0.0,0.0,91,0.00,,,0.15,,2013-08-09 04:43:00,
2013-08-09 00:53:00,71.0,68.0,29.95,SW,214,0.0,0.0,91,0.00,,,0.15,,2013-08-09 04:53:00,
2013-08-09 01:02:00,71.0,68.0,29.95,SW,214,0.0,0.0,91,0.00,,,0.15,,2013-08-09 05:02:00,
2013-08-09 01:12:00,71.0,68.0,29.94,SW,214,0.0,0.0,90,0.00,,,0.15,,2013-08-09 05:12:00,
2013-08-09 01:22:00,71.0,68.0,29.94,SW,214,0.0,0.0,90,0.00,,,0.15,,2013-08-09 05:22:00,
2013-08-09 01:33:00,71.0,68.0,29.94,SW,214,0.0,0.0,90,0.00,,,0.15,,2013-08-09 05:33:00,
2013-08-09 01:43:00,71.0,69.0,29.94,SW,214,0.0,0.0,92,0.00,,,0.15,,2013-08-09 05:43:00,
2013-08-09 01:52:00,71.0,69.0,29.94,SW,214,0.0,0.0,92,0.00,,,0.15,,2013-08-09 05:52:00,
2013-08-09 02:01:00,71.0,69.0,29.94,SW,214,0.0,0.0,93,0.01,,,0.16,,2013-08-09 06:01:00,
2013-08-09 02:11:00,71.0,69.0,29.94,SW,214,0.0,0.0,93,0.02,,,0.17,,2013-08-09 06:11:00,
2013-08-09 02:32:00,71.0,69.0,29.94,SW,214,0.0,0.0,94,0.02,,,0.17,,2013-08-09 06:32:00,
2013-08-09 02:43:00,71.0,69.0,29.93,SW,214,0.0,1.0,94,0.02,,,0.17,,2013-08-09 06:43:00,
2013-08-09 02:52:00,71.0,69.0,29.93,SW,214,0.0,1.0,94,0.02,,,0.17,,2013-08-09 06:52:00,
2013-08-09 03:01:00,71.0,69.0,29.93,SW,214,0.0,0.0,95,0.01,,,0.17,,2013-08-09 07:01:00,
2013-08-09 03:22:00,70.0,68.0,29.91,SW,214,0.0,0.0,95,0.01,,,0.18,,2013-08-09 07:22:00,
2013-08-09 03:33:00,70.0,68.0,29.91,SW,214,0.0,0.0,95,0.01,,,0.18,,2013-08-09 07:33:00,
2013-08-09 03:43:00,70.0,68.0,29.92,SW,214,0.0,0.0,95,0.01,,,0.18,,2013-08-09 07:43:00,
2013-08-09 03:53:00,70.0,69.0,29.92,SW,214,0.0,0.0,96,0.01,,,0.18,,2013-08-09 07:53:00,
2013-08-09 04:02:00,70.0,69.0,29.92,SW,214,0.0,0.0,96,0.01,,,0.18,,2013-08-09 08:02:00,
2013-08-09 04:12:00,70.0,69.0,29.92,SW,214,0.0,0.0,96,0.00,,,0.18,,2013-08-09 08:12:00,
2013-08-09 04:32:00,70.0,69.0,29.92,SW,214,0.0,0.0,96,0.00,,,0.18,,2013-08-09 08:32:00,
2013-08-09 04:43:00,70.0,69.0,29.92,SW,214,0.0,0.0,96,0.00,,,0.18,,2013-08-09 08:43:00,
2013-08-09 04:53:00,70.0,69.0,29.91,SW,214,0.0,0.0,96,0.00,,,0.18,,2013-08-09 08:53:00,
2013-08-09 05:02:00,70.0,69.0,29.91,SW,214,0.0,0.0,96,0.00,,,0.18,,2013-08-09 09:02:00,
2013-08-09 05:32:00,70.0,69.0,29.91,SW,214,0.0,0.0,96,0.00,,,0.15,,2013-08-09 09:32:00,
2013-08-09 05:43:00,70.0,69.0,29.91,SW,214,0.0,0.0,96,0.00,,,0.15,,2013-08-09 09:43:00,
2013-08-09 05:52:00,70.0,69.0,29.91,SW,214,0.0,0.0,96,0.00,,,0.15,,2013-08-09 09:52:00,
2013-08-09 06:01:00,70.0,69.0,29.91,SW,214,0.0,0.0,96,0.00,,,0.15,,2013-08-09 10:01:00,
2013-08-09 06:12:00,70.0,69.0,29.91,SW,214,0.0,0.0,96,0.00,,,0.13,,2013-08-09 10:12:00,
2013-08-09 06:32:00,70.0,69.0,29.91,SW,214,0.0,0.0,96,0.00,,,0.13,,2013-08-09 10:32:00,
2013-08-09 06:43:00,70.0,69.0,29.90,SW,214,0.0,0.0,97,0.01,,,0.14,,2013-08-09 10:43:00,
2013-08-09 06:53:00,70.0,69.0,29.91,SW,214,0.0,0.0,97,0.01,,,0.14,,2013-08-09 10:53:00,
2013-08-09 07:02:00,70.0,69.0,29.91,SW,214,0.0,0.0,97,0.01,,,0.14,,2013-08-09 11:02:00,
2013-08-09 07:11:00,70.0,69.0,29.90,SW,214,0.0,0.0,97,0.01,,,0.14,,2013-08-09 11:11:00,
2013-08-09 07:33:00,70.0,69.0,29.90,SW,214,0.0,0.0,97,0.02,,,0.15,,2013-08-09 11:33:00,
2013-08-09 07:43:00,70.0,69.0,29.90,SW,214,0.0,0.0,97,0.02,,,0.16,,2013-08-09 11:43:00,
2013-08-09 07:53:00,70.0,69.0,29.90,SW,214,0.0,0.0,97,0.02,,,0.16,,2013-08-09 11:53:00,
2013-08-09 08:02:00,70.0,69.0,29.90,SW,214,0.0,0.0,97,0.04,,,0.18,,2013-08-09 12:02:00,
2013-08-09 08:12:00,70.0,69.0,29.91,SW,214,0.0,1.0,97,0.04,,,0.18,,2013-08-09 12:12:00,
2013-08-09 08:32:00,70.0,69.0,29.91,SW,214,0.0,0.0,97,0.04,,,0.19,,2013-08-09 12:32:00,
2013-08-09 08:43:00,70.0,69.0,29.91,West,280,0.0,0.0,97,0.03,,,0.20,,2013-08-09 12:43:00,
2013-08-09 08:52:00,70.0,69.0,29.90,West,280,0.0,0.0,97,0.04,,,0.22,,2013-08-09 12:52:00,
2013-08-09 09:01:00,70.0,69.0,29.90,West,280,0.0,0.0,97,0.04,,,0.22,,2013-08-09 13:01:00,
2013-08-09 09:12:00,70.0,69.0,29.90,West,280,0.0,0.0,97,0.07,,,0.25,,2013-08-09 13:12:00,
2013-08-09 09:23:00,70.0,69.0,29.90,WNW,288,0.0,2.0,97,0.07,,,0.26,,2013-08-09 13:23:00,
2013-08-09 09:32:00,70.0,69.0,29.90,WNW,288,0.0,2.0,97,0.07,,,0.26,,2013-08-09 13:32:00,
2013-08-09 09:43:00,69.0,68.0,29.90,WNW,288,0.0,0.0,96,0.07,,,0.27,,2013-08-09 13:43:00,
2013-08-09 09:52:00,69.0,68.0,29.90,WNW,288,0.0,0.0,97,0.06,,,0.28,,2013-08-09 13:52:00,
2013-08-09 10:02:00,69.0,68.0,29.90,WNW,288,0.0,0.0,97,0.06,,,0.28,,2013-08-09 14:02:00,
2013-08-09 10:22:00,69.0,68.0,29.90,West,277,1.0,5.0,96,0.05,,,0.30,,2013-08-09 14:22:00,
2013-08-09 10:33:00,69.0,68.0,29.90,West,277,1.0,5.0,96,0.05,,,0.30,,2013-08-09 14:33:00,
2013-08-09 10:43:00,68.0,67.0,29.91,NW,315,2.0,10.0,96,0.05,,,0.32,,2013-08-09 14:43:00,
2013-08-09 10:53:00,67.0,66.0,29.92,NNW,335,4.0,6.0,96,0.05,,,0.33,,2013-08-09 14:53:00,
2013-08-09 11:02:00,67.0,66.0,29.92,NNW,335,4.0,6.0,96,0.05,,,0.33,,2013-08-09 15:02:00,
2013-08-09 11:12:00,67.0,66.0,29.91,WNW,299,0.0,9.0,96,0.14,,,0.44,,2013-08-09 15:12:00,
2013-08-09 11:22:00,67.0,66.0,29.91,WNW,299,0.0,9.0,96,0.14,,,0.44,,2013-08-09 15:22:00,
2013-08-09 11:33:00,67.0,66.0,29.91,NW,306,0.0,3.0,97,0.16,,,0.47,,2013-08-09 15:33:00,
2013-08-09 11:44:00,67.0,66.0,29.91,WNW,297,3.0,8.0,97,0.15,,,0.47,,2013-08-09 15:44:00,
2013-08-09 11:53:00,67.0,66.0,29.91,WNW,300,0.0,5.0,97,0.14,,,0.47,,2013-08-09 15:53:00,
2013-08-09 12:02:00,67.0,66.0,29.91,WNW,300,0.0,5.0,97,0.14,,,0.47,,2013-08-09 16:02:00,
2013-08-09 12:32:00,67.0,66.0,29.92,WNW,302,1.0,8.0,96,0.00,,,0.47,,2013-08-09 16:32:00,
2013-08-09 12:43:00,67.0,66.0,29.92,WNW,299,2.0,6.0,96,0.00,,,0.47,,2013-08-09 16:43:00,
2013-08-09 13:02:00,67.0,66.0,29.91,WNW,298,0.0,2.0,97,0.00,,,0.47,,2013-08-09 17:02:00,
2013-08-09 13:33:00,69.0,68.0,29.91,WNW,288,3.0,9.0,95,0.01,,,0.48,,2013-08-09 17:33:00,
2013-08-09 13:43:00,69.0,67.0,29.92,NW,307,4.0,10.0,94,0.01,,,0.48,,2013-08-09 17:43:00,
2013-08-09 14:02:00,69.0,67.0,29.91,WNW,302,1.0,8.0,93,0.01,,,0.48,,2013-08-09 18:02:00,
2013-08-09 14:32:00,70.0,67.0,29.91,WNW,303,1.0,5.0,90,0.00,,,0.48,,2013-08-09 18:32:00,
2013-08-09 14:43:00,71.0,68.0,29.91,WNW,303,0.0,3.0,89,0.00,,,0.48,,2013-08-09 18:43:00,
2013-08-09 14:53:00,72.0,68.0,29.91,WNW,290,1.0,6.0,87,0.00,,,0.48,,2013-08-09 18:53:00,
2013-08-09 15:02:00,72.0,68.0,29.91,WNW,290,1.0,6.0,87,0.00,,,0.48,,2013-08-09 19:02:00,
2013-08-09 15:11:00,72.0,67.0,29.91,NW,305,2.0,8.0,85,0.00,,,0.48,,2013-08-09 19:11:00,
2013-08-09 15:22:00,72.0,67.0,29.91,NW,305,2.0,8.0,85,0.00,,,0.48,,2013-08-09 19:22:00,
2013-08-09 15:32:00,73.0,68.0,29.91,NW,306,0.0,5.0,83,0.00,,,0.48,,2013-08-09 19:32:00,
2013-08-09 15:43:00,75.0,68.0,29.91,NW,315,1.0,8.0,78,0.00,,,0.48,,2013-08-09 19:43:00,
2013-08-09 15:52:00,75.0,67.0,29.90,NW,308,1.0,9.0,76,0.00,,,0.48,,2013-08-09 19:52:00,
2013-08-09 16:02:00,75.0,67.0,29.90,NW,308,1.0,9.0,76,0.00,,,0.48,,2013-08-09 20:02:00,
2013-08-09 16:11:00,76.0,68.0,29.91,NW,305,0.0,4.0,77,0.00,,,0.48,,2013-08-09 20:11:00,
2013-08-09 16:32:00,76.0,65.0,29.91,WNW,286,3.0,10.0,70,0.00,,,0.48,,2013-08-09 20:32:00,
2013-08-09 16:43:00,76.0,65.0,29.91,WNW,292,1.0,8.0,70,0.00,,,0.48,,2013-08-09 20:43:00,
2013-08-09 16:52:00,76.0,65.0,29.91,WNW,292,1.0,8.0,70,0.00,,,0.48,,2013-08-09 20:52:00,
2013-08-09 17:02:00,78.0,67.0,29.91,WSW,248,0.0,4.0,68,0.00,,,0.48,,2013-08-09 21:02:00,
2013-08-09 17:33:00,78.0,64.0,29.91,WNW,302,4.0,12.0,62,0.00,,,0.48,,2013-08-09 21:33:00,
2013-08-09 17:43:00,78.0,64.0,29.90,NW,317,3.0,12.0,63,0.00,,,0.48,,2013-08-09 21:43:00,
2013-08-09 17:52:00,78.0,64.0,29.90,WNW,297,3.0,11.0,63,0.00,,,0.48,,2013-08-09 21:52:00,
2013-08-09 18:02:00,78.0,64.0,29.90,WNW,297,3.0,11.0,63,0.00,,,0.48,,2013-08-09 22:02:00,
2013-08-09 18:32:00,78.0,62.0,29.90,WNW,282,6.0,14.0,58,0.00,,,0.38,,2013-08-09 22:32:00,
2013-08-09 18:42:00,77.0,61.0,29.90,West,265,7.0,13.0,58,0.00,,,0.38,,2013-08-09 22:42:00,
2013-08-09 18:52:00,77.0,63.0,29.90,WNW,282,5.0,13.0,61,0.00,,,0.38,,2013-08-09 22:52:00,
2013-08-09 19:02:00,77.0,63.0,29.90,WNW,282,5.0,13.0,61,0.00,,,0.38,,2013-08-09 23:02:00,
2013-08-09 19:22:00,76.0,60.0,29.91,NW,309,6.0,15.0,57,0.00,,,0.38,,2013-08-09 23:22:00,
2013-08-09 19:32:00,76.0,59.0,29.91,West,267,6.0,17.0,55,0.00,,,0.38,,2013-08-09 23:32:00,
2013-08-09 19:43:00,75.0,59.0,29.92,WSW,246,3.0,9.0,57,0.00,,,0.38,,2013-08-09 23:43:00,
2013-08-09 19:52:00,74.0,59.0,29.92,West,273,3.0,12.0,59,0.00,,,0.38,,2013-08-09 23:52:00,
2013-08-09 20:01:00,74.0,59.0,29.92,West,273,3.0,12.0,59,0.00,,,0.38,,2013-08-10 00:01:00,
2013-08-09 20:33:00,73.0,60.0,29.93,NW,304,3.0,8.0,63,0.00,,,0.38,,2013-08-10 00:33:00,
2013-08-09 20:43:00,72.0,60.0,29.93,West,276,1.0,7.0,65,0.00,,,0.38,,2013-08-10 00:43:00,
2013-08-09 20:52:00,72.0,60.0,29.93,West,276,1.0,7.0,65,0.00,,,0.38,,2013-08-10 00:52:00,
2013-08-09 21:02:00,72.0,60.0,29.93,West,276,1.0,7.0,65,0.00,,,0.38,,2013-08-10 01:02:00,
2013-08-09 21:11:00,72.0,60.0,29.93,WNW,294,3.0,10.0,65,0.00,,,0.38,,2013-08-10 01:11:00,
2013-08-09 21:22:00,72.0,60.0,29.93,WNW,294,3.0,10.0,65,0.00,,,0.38,,2013-08-10 01:22:00,
2013-08-09 21:31:00,70.0,61.0,29.95,WNW,292,4.0,13.0,73,0.00,,,0.38,,2013-08-10 01:31:00,
2013-08-09 21:32:00,72.0,60.0,29.93,WNW,294,3.0,10.0,65,0.00,,,0.38,,2013-08-10 01:32:00,
2013-08-09 21:42:00,72.0,60.0,29.93,WNW,294,3.0,10.0,65,0.00,,,0.38,,2013-08-10 01:42:00,
2013-08-09 21:52:00,70.0,61.0,29.95,WNW,292,4.0,13.0,73,0.00,,,0.38,,2013-08-10 01:52:00,
2013-08-09 22:03:00,70.0,61.0,29.95,WNW,292,4.0,13.0,73,0.00,,,0.38,,2013-08-10 02:03:00,
2013-08-09 22:11:00,70.0,61.0,29.95,WNW,292,4.0,13.0,73,0.00,,,0.38,,2013-08-10 02:11:00,
2013-08-09 22:21:00,70.0,61.0,29.95,WNW,292,4.0,13.0,73,0.00,,,0.38,,2013-08-10 02:21:00,
2013-08-09 22:42:00,70.0,61.0,29.96,SSW,196,4.0,20.0,74,0.00,,,0.38,,2013-08-10 02:42:00,
2013-08-09 22:52:00,70.0,61.0,29.96,SSW,196,4.0,20.0,74,0.00,,,0.38,,2013-08-10 02:52:00,
2013-08-09 23:01:00,69.0,61.0,29.95,WNW,284,4.0,11.0,77,0.00,,,0.38,,2013-08-10 03:01:00,
2013-08-09 23:11:00,69.0,61.0,29.95,WNW,284,4.0,11.0,77,0.00,,,0.38,,2013-08-10 03:11:00,
2013-08-09 23:22:00,69.0,61.0,29.95,WNW,284,4.0,11.0,77,0.00,,,0.38,,2013-08-10 03:22:00,
2013-08-09 23:32:00,68.0,61.0,29.96,WSW,238,6.0,16.0,78,0.00,,,0.38,,2013-08-10 03:32:00,
2013-08-09 23:42:00,68.0,61.0,29.96,WSW,238,6.0,16.0,78,0.00,,,0.38,,2013-08-10 03:42:00,
2013-08-09 23:52:00,68.0,61.0,29.96,WSW,238,6.0,16.0,78,0.00,,,0.38,,2013-08-10 03:52:00,